sensor_id;sensor_type;location;lat;lon;timestamp;P1;durP1;ratioP1;P2;durP2;ratioP2
16760;SDS011;8498;52.516;13.790;2023-01-05T00:00:29;2.90;;;1.57;;
16760;SDS011;8498;52.516;13.790;2023-01-05T00:05:57;6.33;;;2.03;;
16760;SDS011;8498;52.516;13.790;2023-01-05T00:11:21;1.40;;;1.30;;
16760;SDS011;8498;52.516;13.790;2023-01-05T00:17:04;4.23;;;1.90;;
16760;SDS011;8498;52.516;13.790;2023-01-05T00:22:49;3.03;;;2.20;;
16760;SDS011;8498;52.516;13.790;2023-01-05T00:28:13;2.60;;;1.50;;
16760;SDS011;8498;52.516;13.790;2023-01-05T00:33:36;6.17;;;2.10;;
16760;SDS011;8498;52.516;13.790;2023-01-05T00:39:01;4.50;;;1.47;;
16760;SDS011;8498;52.516;13.790;2023-01-05T00:44:23;2.97;;;1.47;;
16760;SDS011;8498;52.516;13.790;2023-01-05T00:49:46;4.97;;;1.50;;
16760;SDS011;8498;52.516;13.790;2023-01-05T00:55:08;3.83;;;1.87;;
16760;SDS011;8498;52.516;13.790;2023-01-05T01:00:31;4.37;;;1.70;;
16760;SDS011;8498;52.516;13.790;2023-01-05T01:05:57;9.23;;;1.80;;
16760;SDS011;8498;52.516;13.790;2023-01-05T01:11:19;6.70;;;1.50;;
16760;SDS011;8498;52.516;13.790;2023-01-05T01:16:42;13.13;;;1.40;;
16760;SDS011;8498;52.516;13.790;2023-01-05T01:22:04;9.07;;;1.80;;
16760;SDS011;8498;52.516;13.790;2023-01-05T01:27:28;10.27;;;1.70;;
16760;SDS011;8498;52.516;13.790;2023-01-05T01:32:54;8.93;;;1.70;;
16760;SDS011;8498;52.516;13.790;2023-01-05T01:38:17;7.40;;;1.23;;
16760;SDS011;8498;52.516;13.790;2023-01-05T01:43:46;6.90;;;2.10;;
16760;SDS011;8498;52.516;13.790;2023-01-05T01:49:12;8.80;;;1.83;;
16760;SDS011;8498;52.516;13.790;2023-01-05T01:54:35;3.73;;;1.50;;
16760;SDS011;8498;52.516;13.790;2023-01-05T01:59:59;4.13;;;1.73;;
16760;SDS011;8498;52.516;13.790;2023-01-05T02:05:27;10.90;;;2.10;;
16760;SDS011;8498;52.516;13.790;2023-01-05T02:16:34;6.23;;;1.40;;
16760;SDS011;8498;52.516;13.790;2023-01-05T02:35:01;11.20;;;2.27;;
16760;SDS011;8498;52.516;13.790;2023-01-05T02:40:04;4.90;;;1.60;;
16760;SDS011;8498;52.516;13.790;2023-01-05T02:45:34;2.80;;;1.40;;
16760;SDS011;8498;52.516;13.790;2023-01-05T02:51:01;2.37;;;1.40;;
16760;SDS011;8498;52.516;13.790;2023-01-05T02:56:31;2.20;;;1.30;;
16760;SDS011;8498;52.516;13.790;2023-01-05T03:02:08;7.73;;;1.93;;
16760;SDS011;8498;52.516;13.790;2023-01-05T03:07:45;5.57;;;1.97;;
16760;SDS011;8498;52.516;13.790;2023-01-05T03:13:10;6.63;;;1.60;;
16760;SDS011;8498;52.516;13.790;2023-01-05T03:18:52;7.13;;;1.97;;
16760;SDS011;8498;52.516;13.790;2023-01-05T03:24:37;2.93;;;1.30;;
16760;SDS011;8498;52.516;13.790;2023-01-05T03:30:20;5.07;;;1.60;;
16760;SDS011;8498;52.516;13.790;2023-01-05T03:36:06;5.27;;;1.83;;
16760;SDS011;8498;52.516;13.790;2023-01-05T03:41:34;5.93;;;1.40;;
16760;SDS011;8498;52.516;13.790;2023-01-05T03:46:58;7.77;;;2.23;;
16760;SDS011;8498;52.516;13.790;2023-01-05T03:52:20;9.97;;;2.20;;
16760;SDS011;8498;52.516;13.790;2023-01-05T03:57:43;6.40;;;1.40;;
16760;SDS011;8498;52.516;13.790;2023-01-05T04:03:07;7.67;;;1.30;;
16760;SDS011;8498;52.516;13.790;2023-01-05T04:08:33;7.97;;;1.37;;
16760;SDS011;8498;52.516;13.790;2023-01-05T04:13:56;6.17;;;1.40;;
16760;SDS011;8498;52.516;13.790;2023-01-05T04:19:19;4.33;;;1.80;;
16760;SDS011;8498;52.516;13.790;2023-01-05T04:24:45;2.67;;;1.23;;
16760;SDS011;8498;52.516;13.790;2023-01-05T04:30:08;4.03;;;1.60;;
16760;SDS011;8498;52.516;13.790;2023-01-05T04:35:32;1.10;;;1.07;;
16760;SDS011;8498;52.516;13.790;2023-01-05T04:40:54;8.43;;;1.53;;
16760;SDS011;8498;52.516;13.790;2023-01-05T04:46:19;2.90;;;1.13;;
16760;SDS011;8498;52.516;13.790;2023-01-05T04:51:43;3.33;;;1.50;;
16760;SDS011;8498;52.516;13.790;2023-01-05T04:57:07;6.70;;;1.17;;
16760;SDS011;8498;52.516;13.790;2023-01-05T05:02:29;5.00;;;1.40;;
16760;SDS011;8498;52.516;13.790;2023-01-05T05:07:53;3.13;;;1.47;;
16760;SDS011;8498;52.516;13.790;2023-01-05T05:13:19;6.13;;;1.40;;
16760;SDS011;8498;52.516;13.790;2023-01-05T05:18:44;3.37;;;1.30;;
16760;SDS011;8498;52.516;13.790;2023-01-05T05:24:11;1.40;;;1.20;;
16760;SDS011;8498;52.516;13.790;2023-01-05T05:29:37;4.70;;;1.40;;
16760;SDS011;8498;52.516;13.790;2023-01-05T05:34:59;3.50;;;1.20;;
16760;SDS011;8498;52.516;13.790;2023-01-05T05:40:22;2.77;;;1.13;;
16760;SDS011;8498;52.516;13.790;2023-01-05T05:45:45;2.27;;;1.10;;
16760;SDS011;8498;52.516;13.790;2023-01-05T05:51:12;3.73;;;1.33;;
16760;SDS011;8498;52.516;13.790;2023-01-05T05:56:34;4.23;;;1.33;;
16760;SDS011;8498;52.516;13.790;2023-01-05T06:01:57;3.13;;;0.90;;
16760;SDS011;8498;52.516;13.790;2023-01-05T06:07:19;1.57;;;0.73;;
16760;SDS011;8498;52.516;13.790;2023-01-05T06:12:42;1.10;;;1.00;;
16760;SDS011;8498;52.516;13.790;2023-01-05T06:18:04;1.63;;;0.67;;
16760;SDS011;8498;52.516;13.790;2023-01-05T06:23:26;0.30;;;0.30;;
16760;SDS011;8498;52.516;13.790;2023-01-05T06:28:49;0.60;;;0.60;;
16760;SDS011;8498;52.516;13.790;2023-01-05T06:34:11;1.60;;;0.60;;
16760;SDS011;8498;52.516;13.790;2023-01-05T06:39:34;0.60;;;0.60;;
16760;SDS011;8498;52.516;13.790;2023-01-05T06:44:56;0.70;;;0.70;;
16760;SDS011;8498;52.516;13.790;2023-01-05T06:50:18;0.70;;;0.70;;
16760;SDS011;8498;52.516;13.790;2023-01-05T06:55:41;1.60;;;0.60;;
16760;SDS011;8498;52.516;13.790;2023-01-05T07:01:03;0.60;;;0.60;;
16760;SDS011;8498;52.516;13.790;2023-01-05T07:06:26;0.83;;;0.70;;
16760;SDS011;8498;52.516;13.790;2023-01-05T07:11:49;0.60;;;0.60;;
16760;SDS011;8498;52.516;13.790;2023-01-05T07:17:11;1.77;;;0.60;;
16760;SDS011;8498;52.516;13.790;2023-01-05T07:22:34;1.13;;;0.60;;
16760;SDS011;8498;52.516;13.790;2023-01-05T07:27:56;0.83;;;0.83;;
16760;SDS011;8498;52.516;13.790;2023-01-05T07:33:19;1.03;;;0.70;;
16760;SDS011;8498;52.516;13.790;2023-01-05T07:38:41;4.63;;;0.70;;
16760;SDS011;8498;52.516;13.790;2023-01-05T07:44:03;0.70;;;0.70;;
16760;SDS011;8498;52.516;13.790;2023-01-05T07:49:26;0.50;;;0.50;;
16760;SDS011;8498;52.516;13.790;2023-01-05T07:54:48;0.47;;;0.47;;
16760;SDS011;8498;52.516;13.790;2023-01-05T08:00:10;3.30;;;0.80;;
16760;SDS011;8498;52.516;13.790;2023-01-05T08:05:35;1.87;;;0.77;;
16760;SDS011;8498;52.516;13.790;2023-01-05T08:10:58;1.03;;;0.63;;
16760;SDS011;8498;52.516;13.790;2023-01-05T08:16:21;0.93;;;0.77;;
16760;SDS011;8498;52.516;13.790;2023-01-05T08:21:44;0.80;;;0.73;;
16760;SDS011;8498;52.516;13.790;2023-01-05T08:27:06;1.57;;;0.60;;
16760;SDS011;8498;52.516;13.790;2023-01-05T08:32:28;0.50;;;0.50;;
16760;SDS011;8498;52.516;13.790;2023-01-05T08:37:51;1.93;;;0.60;;
16760;SDS011;8498;52.516;13.790;2023-01-05T08:43:13;0.83;;;0.57;;
16760;SDS011;8498;52.516;13.790;2023-01-05T08:48:35;2.67;;;0.50;;
16760;SDS011;8498;52.516;13.790;2023-01-05T08:53:58;1.63;;;0.57;;
16760;SDS011;8498;52.516;13.790;2023-01-05T08:59:21;0.63;;;0.60;;
16760;SDS011;8498;52.516;13.790;2023-01-05T09:04:44;2.57;;;0.57;;
16760;SDS011;8498;52.516;13.790;2023-01-05T09:10:07;1.43;;;0.53;;
16760;SDS011;8498;52.516;13.790;2023-01-05T09:15:30;0.60;;;0.60;;
16760;SDS011;8498;52.516;13.790;2023-01-05T09:20:55;5.73;;;2.10;;
16760;SDS011;8498;52.516;13.790;2023-01-05T09:26:18;1.27;;;0.90;;
16760;SDS011;8498;52.516;13.790;2023-01-05T09:31:40;2.03;;;0.70;;
16760;SDS011;8498;52.516;13.790;2023-01-05T09:37:03;1.43;;;0.80;;
16760;SDS011;8498;52.516;13.790;2023-01-05T09:42:25;1.53;;;0.67;;
16760;SDS011;8498;52.516;13.790;2023-01-05T09:47:54;2.80;;;0.90;;
16760;SDS011;8498;52.516;13.790;2023-01-05T09:53:22;1.13;;;0.67;;
16760;SDS011;8498;52.516;13.790;2023-01-05T09:58:49;1.83;;;0.70;;
16760;SDS011;8498;52.516;13.790;2023-01-05T10:04:14;0.73;;;0.73;;
16760;SDS011;8498;52.516;13.790;2023-01-05T10:09:39;5.40;;;0.80;;
16760;SDS011;8498;52.516;13.790;2023-01-05T10:15:09;5.30;;;0.90;;
16760;SDS011;8498;52.516;13.790;2023-01-05T10:20:39;1.20;;;0.60;;
16760;SDS011;8498;52.516;13.790;2023-01-05T10:26:19;4.23;;;0.50;;
16760;SDS011;8498;52.516;13.790;2023-01-05T10:31:46;3.10;;;0.80;;
16760;SDS011;8498;52.516;13.790;2023-01-05T10:43:18;2.67;;;0.80;;
16760;SDS011;8498;52.516;13.790;2023-01-05T10:48:52;4.87;;;0.97;;
16760;SDS011;8498;52.516;13.790;2023-01-05T11:00:20;8.10;;;0.90;;
16760;SDS011;8498;52.516;13.790;2023-01-05T11:05:59;6.87;;;0.70;;
16760;SDS011;8498;52.516;13.790;2023-01-05T11:11:25;2.03;;;0.80;;
16760;SDS011;8498;52.516;13.790;2023-01-05T11:16:51;3.87;;;1.10;;
16760;SDS011;8498;52.516;13.790;2023-01-05T11:33:35;5.23;;;0.93;;
16760;SDS011;8498;52.516;13.790;2023-01-05T11:39:00;0.80;;;0.73;;
16760;SDS011;8498;52.516;13.790;2023-01-05T11:44:29;1.53;;;0.87;;
16760;SDS011;8498;52.516;13.790;2023-01-05T11:55:38;3.20;;;1.00;;
16760;SDS011;8498;52.516;13.790;2023-01-05T12:18:25;5.80;;;1.10;;
16760;SDS011;8498;52.516;13.790;2023-01-05T12:52:54;2.33;;;1.30;;
16760;SDS011;8498;52.516;13.790;2023-01-05T12:58:28;3.70;;;0.97;;
16760;SDS011;8498;52.516;13.790;2023-01-05T13:04:02;3.60;;;1.10;;
16760;SDS011;8498;52.516;13.790;2023-01-05T13:09:32;1.63;;;1.00;;
16760;SDS011;8498;52.516;13.790;2023-01-05T13:20:39;6.47;;;0.90;;
16760;SDS011;8498;52.516;13.790;2023-01-05T13:26:15;1.50;;;0.80;;
16760;SDS011;8498;52.516;13.790;2023-01-05T13:43:00;1.77;;;0.70;;
16760;SDS011;8498;52.516;13.790;2023-01-05T14:00:30;3.60;;;0.87;;
16760;SDS011;8498;52.516;13.790;2023-01-05T14:05:56;1.43;;;0.73;;
16760;SDS011;8498;52.516;13.790;2023-01-05T14:11:22;2.47;;;0.70;;
16760;SDS011;8498;52.516;13.790;2023-01-05T14:16:48;2.03;;;0.70;;
16760;SDS011;8498;52.516;13.790;2023-01-05T14:28:14;0.63;;;0.63;;
16760;SDS011;8498;52.516;13.790;2023-01-05T14:33:47;1.10;;;0.80;;
16760;SDS011;8498;52.516;13.790;2023-01-05T15:23:54;4.47;;;1.40;;
16760;SDS011;8498;52.516;13.790;2023-01-05T15:35:30;2.47;;;1.20;;
16760;SDS011;8498;52.516;13.790;2023-01-05T15:40:59;3.60;;;1.63;;
16760;SDS011;8498;52.516;13.790;2023-01-05T15:46:31;3.67;;;1.83;;
16760;SDS011;8498;52.516;13.790;2023-01-05T15:51:55;7.03;;;3.67;;
16760;SDS011;8498;52.516;13.790;2023-01-05T15:57:18;4.67;;;2.63;;
16760;SDS011;8498;52.516;13.790;2023-01-05T16:02:42;3.30;;;2.20;;
16760;SDS011;8498;52.516;13.790;2023-01-05T16:08:10;2.80;;;2.10;;
16760;SDS011;8498;52.516;13.790;2023-01-05T16:19:08;2.37;;;2.20;;
16760;SDS011;8498;52.516;13.790;2023-01-05T16:24:49;5.37;;;2.00;;
16760;SDS011;8498;52.516;13.790;2023-01-05T16:35:49;1.00;;;1.00;;
16760;SDS011;8498;52.516;13.790;2023-01-05T16:41:27;1.23;;;1.13;;
16760;SDS011;8498;52.516;13.790;2023-01-05T16:47:04;1.60;;;1.33;;
16760;SDS011;8498;52.516;13.790;2023-01-05T16:52:28;2.67;;;1.10;;
16760;SDS011;8498;52.516;13.790;2023-01-05T16:58:54;5.10;;;1.70;;
16760;SDS011;8498;52.516;13.790;2023-01-05T17:03:49;4.50;;;1.70;;
16760;SDS011;8498;52.516;13.790;2023-01-05T17:09:23;8.90;;;2.37;;
16760;SDS011;8498;52.516;13.790;2023-01-05T17:14:49;3.50;;;1.43;;
16760;SDS011;8498;52.516;13.790;2023-01-05T17:20:12;4.17;;;1.40;;
16760;SDS011;8498;52.516;13.790;2023-01-05T17:25:34;2.93;;;1.43;;
16760;SDS011;8498;52.516;13.790;2023-01-05T17:30:57;2.97;;;1.20;;
16760;SDS011;8498;52.516;13.790;2023-01-05T17:36:21;3.03;;;1.33;;
16760;SDS011;8498;52.516;13.790;2023-01-05T17:41:49;1.20;;;1.10;;
16760;SDS011;8498;52.516;13.790;2023-01-05T17:47:12;6.60;;;1.10;;
16760;SDS011;8498;52.516;13.790;2023-01-05T17:52:34;4.07;;;1.47;;
16760;SDS011;8498;52.516;13.790;2023-01-05T17:57:57;3.83;;;1.50;;
16760;SDS011;8498;52.516;13.790;2023-01-05T18:03:20;5.00;;;1.50;;
16760;SDS011;8498;52.516;13.790;2023-01-05T18:08:43;5.53;;;1.90;;
16760;SDS011;8498;52.516;13.790;2023-01-05T18:14:06;4.67;;;1.60;;
16760;SDS011;8498;52.516;13.790;2023-01-05T18:19:33;1.47;;;1.20;;
16760;SDS011;8498;52.516;13.790;2023-01-05T18:24:55;5.77;;;1.67;;
16760;SDS011;8498;52.516;13.790;2023-01-05T18:30:18;2.33;;;1.77;;
16760;SDS011;8498;52.516;13.790;2023-01-05T18:35:41;3.50;;;1.67;;
16760;SDS011;8498;52.516;13.790;2023-01-05T18:41:05;3.33;;;1.50;;
16760;SDS011;8498;52.516;13.790;2023-01-05T18:46:28;1.60;;;1.47;;
16760;SDS011;8498;52.516;13.790;2023-01-05T18:51:51;4.33;;;1.30;;
16760;SDS011;8498;52.516;13.790;2023-01-05T18:57:14;2.00;;;1.20;;
16760;SDS011;8498;52.516;13.790;2023-01-05T19:02:38;2.97;;;1.30;;
16760;SDS011;8498;52.516;13.790;2023-01-05T19:08:01;3.80;;;1.70;;
16760;SDS011;8498;52.516;13.790;2023-01-05T19:13:23;1.87;;;1.53;;
16760;SDS011;8498;52.516;13.790;2023-01-05T19:18:50;3.07;;;1.80;;
16760;SDS011;8498;52.516;13.790;2023-01-05T19:24:15;3.17;;;1.70;;
16760;SDS011;8498;52.516;13.790;2023-01-05T19:29:42;4.00;;;2.13;;
16760;SDS011;8498;52.516;13.790;2023-01-05T19:35:05;1.67;;;1.47;;
16760;SDS011;8498;52.516;13.790;2023-01-05T19:40:28;3.33;;;1.50;;
16760;SDS011;8498;52.516;13.790;2023-01-05T19:45:50;3.53;;;1.20;;
16760;SDS011;8498;52.516;13.790;2023-01-05T19:51:19;4.73;;;1.67;;
16760;SDS011;8498;52.516;13.790;2023-01-05T19:56:44;6.03;;;1.60;;
16760;SDS011;8498;52.516;13.790;2023-01-05T20:02:07;2.27;;;1.40;;
16760;SDS011;8498;52.516;13.790;2023-01-05T20:07:29;1.80;;;1.50;;
16760;SDS011;8498;52.516;13.790;2023-01-05T20:12:51;4.30;;;1.50;;
16760;SDS011;8498;52.516;13.790;2023-01-05T20:18:14;3.90;;;1.50;;
16760;SDS011;8498;52.516;13.790;2023-01-05T20:23:38;1.83;;;1.43;;
16760;SDS011;8498;52.516;13.790;2023-01-05T20:29:01;1.37;;;1.27;;
16760;SDS011;8498;52.516;13.790;2023-01-05T20:34:24;2.97;;;1.60;;
16760;SDS011;8498;52.516;13.790;2023-01-05T20:39:53;1.70;;;1.60;;
16760;SDS011;8498;52.516;13.790;2023-01-05T20:45:16;3.77;;;1.97;;
16760;SDS011;8498;52.516;13.790;2023-01-05T20:50:39;1.30;;;1.10;;
16760;SDS011;8498;52.516;13.790;2023-01-05T20:56:05;3.37;;;1.30;;
16760;SDS011;8498;52.516;13.790;2023-01-05T21:01:28;3.87;;;1.40;;
16760;SDS011;8498;52.516;13.790;2023-01-05T21:06:51;3.43;;;1.50;;
16760;SDS011;8498;52.516;13.790;2023-01-05T21:12:21;2.20;;;1.13;;
16760;SDS011;8498;52.516;13.790;2023-01-05T21:17:43;5.30;;;1.67;;
16760;SDS011;8498;52.516;13.790;2023-01-05T21:23:05;4.67;;;1.30;;
16760;SDS011;8498;52.516;13.790;2023-01-05T21:28:28;3.43;;;1.60;;
16760;SDS011;8498;52.516;13.790;2023-01-05T21:33:51;3.53;;;1.30;;
16760;SDS011;8498;52.516;13.790;2023-01-05T21:39:16;1.87;;;1.30;;
16760;SDS011;8498;52.516;13.790;2023-01-05T21:44:43;4.80;;;1.47;;
16760;SDS011;8498;52.516;13.790;2023-01-05T21:50:06;2.73;;;1.80;;
16760;SDS011;8498;52.516;13.790;2023-01-05T21:55:30;1.67;;;1.43;;
16760;SDS011;8498;52.516;13.790;2023-01-05T22:01:11;2.37;;;1.90;;
16760;SDS011;8498;52.516;13.790;2023-01-05T22:06:33;6.03;;;1.50;;
16760;SDS011;8498;52.516;13.790;2023-01-05T22:11:56;1.67;;;1.10;;
16760;SDS011;8498;52.516;13.790;2023-01-05T22:17:18;1.83;;;1.27;;
16760;SDS011;8498;52.516;13.790;2023-01-05T22:22:41;1.67;;;1.00;;
16760;SDS011;8498;52.516;13.790;2023-01-05T22:28:03;1.67;;;0.97;;
16760;SDS011;8498;52.516;13.790;2023-01-05T22:33:26;1.70;;;1.03;;
16760;SDS011;8498;52.516;13.790;2023-01-05T22:38:49;3.40;;;1.10;;
16760;SDS011;8498;52.516;13.790;2023-01-05T22:44:12;2.10;;;1.27;;
16760;SDS011;8498;52.516;13.790;2023-01-05T22:49:35;1.13;;;1.10;;
16760;SDS011;8498;52.516;13.790;2023-01-05T22:54:57;1.73;;;1.20;;
16760;SDS011;8498;52.516;13.790;2023-01-05T23:00:19;1.40;;;1.30;;
16760;SDS011;8498;52.516;13.790;2023-01-05T23:05:41;1.70;;;1.23;;
16760;SDS011;8498;52.516;13.790;2023-01-05T23:11:06;5.37;;;1.40;;
16760;SDS011;8498;52.516;13.790;2023-01-05T23:16:31;3.77;;;1.47;;
16760;SDS011;8498;52.516;13.790;2023-01-05T23:21:54;2.93;;;1.40;;
16760;SDS011;8498;52.516;13.790;2023-01-05T23:27:17;5.70;;;1.40;;
16760;SDS011;8498;52.516;13.790;2023-01-05T23:32:39;2.70;;;1.10;;
16760;SDS011;8498;52.516;13.790;2023-01-05T23:38:02;1.17;;;1.00;;
16760;SDS011;8498;52.516;13.790;2023-01-05T23:43:27;2.03;;;1.37;;
16760;SDS011;8498;52.516;13.790;2023-01-05T23:48:50;1.53;;;1.23;;
16760;SDS011;8498;52.516;13.790;2023-01-05T23:54:13;3.90;;;1.30;;
16760;SDS011;8498;52.516;13.790;2023-01-05T23:59:35;3.70;;;1.10;;
